createdAt,value
2022-10-08T00:00:38.739Z,1010.18
2022-10-08T00:01:38.703Z,1010.21
2022-10-08T00:02:38.679Z,1010.21
2022-10-08T00:03:38.691Z,1010.19
2022-10-08T00:04:38.751Z,1010.18
2022-10-08T00:05:38.640Z,1010.17
2022-10-08T00:06:38.681Z,1010.14
2022-10-08T00:07:38.611Z,1010.18
2022-10-08T00:08:38.642Z,1010.13
2022-10-08T00:09:38.651Z,1010.15
2022-10-08T00:10:38.629Z,1010.14
2022-10-08T00:11:38.610Z,1010.16
2022-10-08T00:12:38.590Z,1010.19
2022-10-08T00:13:38.601Z,1010.18
2022-10-08T00:14:38.553Z,1010.16
2022-10-08T00:15:38.540Z,1010.20
2022-10-08T00:16:38.595Z,1010.16
2022-10-08T00:17:38.548Z,1010.15
2022-10-08T00:18:38.520Z,1010.16
2022-10-08T00:19:38.490Z,1010.13
2022-10-08T00:20:38.482Z,1010.10
2022-10-08T00:21:38.469Z,1010.07
2022-10-08T00:22:38.462Z,1010.08
2022-10-08T00:23:38.479Z,1010.09
2022-10-08T00:24:38.439Z,1010.06
2022-10-08T00:25:38.429Z,1010.04
2022-10-08T00:26:43.324Z,1010.08
2022-10-08T00:27:39.410Z,1010.05
2022-10-08T00:28:38.506Z,1010.02
2022-10-08T00:29:38.419Z,1010.02
2022-10-08T00:30:38.377Z,1010.04
2022-10-08T00:31:38.496Z,1010.03
2022-10-08T00:32:38.369Z,1009.97
2022-10-08T00:33:38.340Z,1010.02
2022-10-08T00:34:38.359Z,1010.03
2022-10-08T00:35:38.319Z,1010.04
2022-10-08T00:36:38.323Z,1010.00
2022-10-08T00:37:38.320Z,1010.02
2022-10-08T00:38:38.299Z,1009.99
2022-10-08T00:39:38.299Z,1010.00
2022-10-08T00:40:38.268Z,1009.91
2022-10-08T00:41:38.279Z,1009.88
2022-10-08T00:42:38.251Z,1009.90
2022-10-08T00:43:38.262Z,1009.92
2022-10-08T00:44:38.231Z,1009.94
2022-10-08T00:45:38.235Z,1009.93
2022-10-08T00:46:38.248Z,1009.95
2022-10-08T00:47:38.187Z,1009.92
2022-10-08T00:48:38.178Z,1009.97
2022-10-08T00:49:38.170Z,1009.97
2022-10-08T00:50:38.267Z,1010.02
2022-10-08T00:51:38.146Z,1009.95
2022-10-08T00:52:38.147Z,1009.95
2022-10-08T00:53:38.158Z,1009.96
2022-10-08T00:54:38.118Z,1009.95
2022-10-08T00:55:43.146Z,1009.94
2022-10-08T00:56:39.106Z,1009.93
2022-10-08T00:57:38.108Z,1009.91
2022-10-08T00:58:38.108Z,1009.87
2022-10-08T00:59:38.087Z,1009.86
2022-10-08T01:00:38.118Z,1009.84
2022-10-08T01:01:38.072Z,1009.81
2022-10-08T01:02:38.028Z,1009.77
2022-10-08T01:03:38.070Z,1009.77
2022-10-08T01:04:38.008Z,1009.78
2022-10-08T01:05:37.998Z,1009.81
2022-10-08T01:06:37.988Z,1009.79
2022-10-08T01:07:37.977Z,1009.78
2022-10-08T01:08:37.981Z,1009.76
2022-10-08T01:09:37.980Z,1009.77
2022-10-08T01:10:37.938Z,1009.77
2022-10-08T01:11:37.935Z,1009.74
2022-10-08T01:12:37.966Z,1009.76
2022-10-08T01:13:37.957Z,1009.75
2022-10-08T01:14:37.918Z,1009.73
2022-10-08T01:15:37.899Z,1009.77
2022-10-08T01:16:37.934Z,1009.75
2022-10-08T01:17:37.867Z,1009.80
2022-10-08T01:18:37.858Z,1009.81
2022-10-08T01:19:37.958Z,1009.75
2022-10-08T01:20:37.856Z,1009.75
2022-10-08T01:21:37.827Z,1009.77
2022-10-08T01:22:37.817Z,1009.71
2022-10-08T01:23:37.797Z,1009.73
2022-10-08T01:24:37.907Z,1009.76
2022-10-08T01:25:37.799Z,1009.74
2022-10-08T01:26:37.777Z,1009.82
2022-10-08T01:27:37.757Z,1009.79
2022-10-08T01:28:37.777Z,1009.74
2022-10-08T01:29:37.789Z,1009.75
2022-10-08T01:30:37.753Z,1009.77
2022-10-08T01:31:37.812Z,1009.72
2022-10-08T01:32:37.708Z,1009.71
2022-10-08T01:33:37.697Z,1009.69
2022-10-08T01:34:37.799Z,1009.64
2022-10-08T01:35:37.677Z,1009.66
2022-10-08T01:36:37.696Z,1009.63
2022-10-08T01:37:37.686Z,1009.60
2022-10-08T01:38:37.647Z,1009.63
2022-10-08T01:39:37.636Z,1009.60
2022-10-08T01:40:37.617Z,1009.63
2022-10-08T01:41:37.612Z,1009.62
2022-10-08T01:42:37.663Z,1009.64
2022-10-08T01:43:37.586Z,1009.63
2022-10-08T01:44:37.587Z,1009.69
2022-10-08T01:45:37.652Z,1009.69
2022-10-08T01:46:37.566Z,1009.70
2022-10-08T01:47:37.657Z,1009.73
2022-10-08T01:48:37.555Z,1009.68
2022-10-08T01:49:37.527Z,1009.72
2022-10-08T01:50:37.517Z,1009.72
2022-10-08T01:51:37.496Z,1009.69
2022-10-08T01:52:37.489Z,1009.71
2022-10-08T01:53:37.611Z,1009.74
2022-10-08T01:54:37.474Z,1009.73
2022-10-08T01:55:37.463Z,1009.66
2022-10-08T01:56:37.466Z,1009.69
2022-10-08T01:57:37.436Z,1009.67
2022-10-08T01:58:44.530Z,1009.68
2022-10-08T01:59:37.440Z,1009.70
2022-10-08T02:00:37.416Z,1009.67
2022-10-08T02:01:37.412Z,1009.70
2022-10-08T02:02:37.421Z,1009.71
2022-10-08T02:03:37.427Z,1009.73
2022-10-08T02:04:37.382Z,1009.71
2022-10-08T02:05:37.349Z,1009.65
2022-10-08T02:06:37.352Z,1009.64
2022-10-08T02:07:37.338Z,1009.59
2022-10-08T02:08:37.360Z,1009.65
2022-10-08T02:09:37.311Z,1009.63
2022-10-08T02:10:37.299Z,1009.60
2022-10-08T02:11:37.289Z,1009.63
2022-10-08T02:12:37.284Z,1009.66
2022-10-08T02:13:37.268Z,1009.66
2022-10-08T02:14:37.301Z,1009.63
2022-10-08T02:15:37.249Z,1009.68
2022-10-08T02:16:37.278Z,1009.62
2022-10-08T02:17:37.218Z,1009.68
2022-10-08T02:18:37.216Z,1009.67
2022-10-08T02:19:37.210Z,1009.64
2022-10-08T02:20:37.230Z,1009.68
2022-10-08T02:21:37.185Z,1009.67
2022-10-08T02:22:37.169Z,1009.68
2022-10-08T02:23:37.197Z,1009.69
2022-10-08T02:24:37.147Z,1009.68
2022-10-08T02:25:37.137Z,1009.67
2022-10-08T02:26:37.138Z,1009.66
2022-10-08T02:27:37.118Z,1009.68
2022-10-08T02:28:37.194Z,1009.63
2022-10-08T02:29:37.127Z,1009.57
2022-10-08T02:30:37.087Z,1009.59
2022-10-08T02:31:37.159Z,1009.56
2022-10-08T02:32:37.058Z,1009.57
2022-10-08T02:33:37.051Z,1009.61
2022-10-08T02:34:37.048Z,1009.57
2022-10-08T02:35:37.028Z,1009.59
2022-10-08T02:36:37.053Z,1009.56
2022-10-08T02:37:37.045Z,1009.59
2022-10-08T02:38:37.008Z,1009.61
2022-10-08T02:39:36.989Z,1009.62
2022-10-08T02:40:36.978Z,1009.58
2022-10-08T02:41:36.987Z,1009.61
2022-10-08T02:42:36.965Z,1009.62
2022-10-08T02:43:36.946Z,1009.60
2022-10-08T02:44:36.949Z,1009.64
2022-10-08T02:45:37.015Z,1009.63
2022-10-08T02:46:36.915Z,1009.62
2022-10-08T02:47:36.949Z,1009.65
2022-10-08T02:48:36.901Z,1009.57
2022-10-08T02:49:36.877Z,1009.63
2022-10-08T02:50:36.868Z,1009.67
2022-10-08T02:51:36.962Z,1009.68
2022-10-08T02:52:36.876Z,1009.64
2022-10-08T02:53:36.833Z,1009.56
2022-10-08T02:54:36.827Z,1009.65
2022-10-08T02:55:36.818Z,1009.64
2022-10-08T02:56:36.797Z,1009.62
2022-10-08T02:57:36.827Z,1009.67
2022-10-08T02:58:36.796Z,1009.65
2022-10-08T02:59:36.767Z,1009.70
2022-10-08T03:00:36.764Z,1009.69
2022-10-08T03:01:36.823Z,1009.72
2022-10-08T03:02:36.783Z,1009.70
2022-10-08T03:03:36.772Z,1009.72
2022-10-08T03:04:36.725Z,1009.70
2022-10-08T03:05:36.707Z,1009.72
2022-10-08T03:06:36.698Z,1009.73
2022-10-08T03:07:36.717Z,1009.76
2022-10-08T03:08:36.677Z,1009.74
2022-10-08T03:09:36.664Z,1009.85
2022-10-08T03:10:36.647Z,1009.82
2022-10-08T03:11:36.646Z,1009.83
2022-10-08T03:12:36.635Z,1009.83
2022-10-08T03:13:36.647Z,1009.78
2022-10-08T03:14:36.626Z,1009.82
2022-10-08T03:15:36.610Z,1009.85
2022-10-08T03:16:36.608Z,1009.84
2022-10-08T03:17:36.566Z,1009.88
2022-10-08T03:18:36.604Z,1009.88
2022-10-08T03:19:36.557Z,1009.85
2022-10-08T03:20:36.576Z,1009.92
2022-10-08T03:21:36.533Z,1009.88
2022-10-08T03:22:36.555Z,1009.89
2022-10-08T03:23:36.515Z,1009.91
2022-10-08T03:24:36.538Z,1009.90
2022-10-08T03:25:36.495Z,1009.91
2022-10-08T03:26:36.481Z,1009.92
2022-10-08T03:27:36.466Z,1009.92
2022-10-08T03:28:36.534Z,1009.95
2022-10-08T03:29:36.449Z,1009.89
2022-10-08T03:30:36.521Z,1009.93
2022-10-08T03:31:36.427Z,1009.92
2022-10-08T03:32:36.420Z,1009.96
2022-10-08T03:33:36.405Z,1010.00
2022-10-08T03:34:36.397Z,1009.96
2022-10-08T03:35:36.376Z,1009.95
2022-10-08T03:36:36.396Z,1009.98
2022-10-08T03:37:36.365Z,1009.99
2022-10-08T03:38:36.357Z,1010.02
2022-10-08T03:39:36.336Z,1009.98
2022-10-08T03:40:36.335Z,1010.00
2022-10-08T03:41:36.347Z,1010.01
2022-10-08T03:42:36.317Z,1010.01
2022-10-08T03:43:36.296Z,1009.91
2022-10-08T03:44:36.324Z,1010.07
2022-10-08T03:45:36.276Z,1010.08
2022-10-08T03:46:36.299Z,1010.14
2022-10-08T03:47:36.255Z,1010.11
2022-10-08T03:48:36.245Z,1010.08
2022-10-08T03:49:40.046Z,1010.10
2022-10-08T03:50:36.218Z,1010.09
2022-10-08T03:51:36.216Z,1010.16
2022-10-08T03:52:36.202Z,1010.12
2022-10-08T03:53:36.239Z,1010.15
2022-10-08T03:54:36.214Z,1010.14
2022-10-08T03:55:36.194Z,1010.18
2022-10-08T03:56:36.185Z,1010.14
2022-10-08T03:57:36.152Z,1010.13
2022-10-08T03:58:36.175Z,1010.10
2022-10-08T03:59:36.124Z,1010.08
2022-10-08T04:00:43.127Z,1010.10
2022-10-08T04:01:36.133Z,1010.10
2022-10-08T04:02:36.120Z,1010.14
2022-10-08T04:03:36.085Z,1010.11
2022-10-08T04:04:36.075Z,1010.17
2022-10-08T04:05:36.055Z,1010.18
2022-10-08T04:06:36.093Z,1010.24
2022-10-08T04:07:36.034Z,1010.24
2022-10-08T04:08:36.034Z,1010.28
2022-10-08T04:09:36.014Z,1010.27
2022-10-08T04:10:36.005Z,1010.24
2022-10-08T04:11:36.034Z,1010.17
2022-10-08T04:12:35.985Z,1010.24
2022-10-08T04:13:35.978Z,1010.24
2022-10-08T04:14:35.963Z,1010.21
2022-10-08T04:15:36.027Z,1010.21
2022-10-08T04:16:35.975Z,1010.19
2022-10-08T04:17:35.943Z,1010.18
2022-10-08T04:18:35.929Z,1010.21
2022-10-08T04:19:35.925Z,1010.23
2022-10-08T04:20:35.900Z,1010.18
2022-10-08T04:21:35.943Z,1010.17
2022-10-08T04:22:37.641Z,1010.16
2022-10-08T04:23:35.864Z,1010.15
2022-10-08T04:24:35.854Z,1010.13
2022-10-08T04:25:35.850Z,1010.15
2022-10-08T04:26:35.824Z,1010.14
2022-10-08T04:27:35.842Z,1010.12
2022-10-08T04:28:38.624Z,1010.09
2022-10-08T04:29:35.844Z,1010.11
2022-10-08T04:30:35.813Z,1010.07
2022-10-08T04:31:35.844Z,1010.08
2022-10-08T04:32:35.765Z,1010.12
2022-10-08T04:33:35.782Z,1010.10
2022-10-08T04:34:35.743Z,1010.13
2022-10-08T04:35:35.789Z,1010.19
2022-10-08T04:36:35.723Z,1010.20
2022-10-08T04:37:35.722Z,1010.16
2022-10-08T04:38:35.709Z,1010.19
2022-10-08T04:39:35.700Z,1010.18
2022-10-08T04:40:35.682Z,1010.26
2022-10-08T04:41:35.712Z,1010.24
2022-10-08T04:42:35.720Z,1010.27
2022-10-08T04:43:41.663Z,1010.27
2022-10-08T04:44:35.642Z,1010.31
2022-10-08T04:45:35.632Z,1010.34
2022-10-08T04:46:35.705Z,1010.33
2022-10-08T04:47:35.612Z,1010.31
2022-10-08T04:48:35.592Z,1010.29
2022-10-08T04:49:38.800Z,1010.30
2022-10-08T04:50:35.602Z,1010.34
2022-10-08T04:51:41.795Z,1010.35
2022-10-08T04:52:35.552Z,1010.37
2022-10-08T04:53:35.542Z,1010.36
2022-10-08T04:54:35.540Z,1010.39
2022-10-08T04:55:35.523Z,1010.38
2022-10-08T04:56:35.536Z,1010.39
2022-10-08T04:57:35.503Z,1010.33
2022-10-08T04:58:35.493Z,1010.36
2022-10-08T04:59:35.475Z,1010.41
2022-10-08T05:00:35.485Z,1010.38
2022-10-08T05:02:46.812Z,1010.45
2022-10-08T05:03:46.296Z,1010.41
2022-10-08T05:04:46.326Z,1010.46
2022-10-08T05:05:46.278Z,1010.48
2022-10-08T05:06:46.266Z,1010.50
2022-10-08T05:07:46.255Z,1010.56
2022-10-08T05:08:46.256Z,1010.56
2022-10-08T05:09:46.236Z,1010.52
2022-10-08T05:10:46.296Z,1010.56
2022-10-08T05:11:46.215Z,1010.57
2022-10-08T05:12:46.499Z,1010.61
2022-10-08T05:13:46.245Z,1010.61
2022-10-08T05:14:46.184Z,1010.60
2022-10-08T05:15:46.204Z,1010.57
2022-10-08T05:16:46.185Z,1010.64
2022-10-08T05:17:46.155Z,1010.63
2022-10-08T05:18:46.145Z,1010.62
2022-10-08T05:19:46.125Z,1010.60
2022-10-08T05:20:46.122Z,1010.62
2022-10-08T05:21:46.155Z,1010.61
2022-10-08T05:22:46.403Z,1010.58
2022-10-08T05:23:46.094Z,1010.59
2022-10-08T05:24:46.083Z,1010.61
2022-10-08T05:25:46.065Z,1010.57
2022-10-08T05:26:57.985Z,1010.55
2022-10-08T05:27:47.036Z,1010.55
2022-10-08T05:28:46.100Z,1010.54
2022-10-08T05:29:46.015Z,1010.53
2022-10-08T05:30:46.034Z,1010.53
2022-10-08T05:31:46.001Z,1010.55
2022-10-08T05:32:46.245Z,1010.54
2022-10-08T05:33:45.975Z,1010.56
2022-10-08T05:34:47.555Z,1010.63
2022-10-08T05:35:45.958Z,1010.66
2022-10-08T05:36:45.945Z,1010.67
2022-10-08T05:37:45.925Z,1010.76
2022-10-08T05:38:45.924Z,1010.77
2022-10-08T05:39:45.917Z,1010.79
2022-10-08T05:40:45.934Z,1010.80
2022-10-08T05:41:45.894Z,1010.79
2022-10-08T05:42:46.241Z,1010.83
2022-10-08T05:43:45.872Z,1010.85
2022-10-08T05:44:45.857Z,1010.77
2022-10-08T05:45:45.851Z,1010.83
2022-10-08T05:46:45.912Z,1010.85
2022-10-08T05:47:45.864Z,1010.84
2022-10-08T05:48:45.814Z,1010.90
2022-10-08T05:49:45.855Z,1010.88
2022-10-08T05:50:45.794Z,1010.91
2022-10-08T05:51:45.785Z,1010.93
2022-10-08T05:52:46.182Z,1010.87
2022-10-08T05:53:45.762Z,1010.88
2022-10-08T05:54:45.757Z,1010.91
2022-10-08T05:55:45.774Z,1010.92
2022-10-08T05:56:45.734Z,1010.88
2022-10-08T05:57:45.722Z,1010.99
2022-10-08T05:58:45.748Z,1010.96
2022-10-08T05:59:45.707Z,1011.00
2022-10-08T06:00:45.724Z,1010.99
2022-10-08T06:01:50.385Z,1010.99
2022-10-08T06:02:46.046Z,1011.04
2022-10-08T06:03:45.655Z,1011.04
2022-10-08T06:04:45.681Z,1011.02
2022-10-08T06:05:45.643Z,1011.05
2022-10-08T06:06:45.674Z,1011.06
2022-10-08T06:07:45.643Z,1011.09
2022-10-08T06:08:46.333Z,1011.06
2022-10-08T06:09:45.594Z,1011.04
2022-10-08T06:10:45.581Z,1011.05
2022-10-08T06:11:45.571Z,1011.14
2022-10-08T06:12:45.881Z,1011.10
2022-10-08T06:13:45.586Z,1011.14
2022-10-08T06:14:45.554Z,1011.22
2022-10-08T06:15:45.578Z,1011.23
2022-10-08T06:16:45.534Z,1011.25
2022-10-08T06:17:45.504Z,1011.32
2022-10-08T06:18:45.494Z,1011.29
2022-10-08T06:19:45.513Z,1011.34
2022-10-08T06:20:45.515Z,1011.33
2022-10-08T06:21:45.463Z,1011.39
2022-10-08T06:22:45.594Z,1011.35
2022-10-08T06:23:45.433Z,1011.41
2022-10-08T06:24:45.483Z,1011.41
2022-10-08T06:25:45.415Z,1011.46
2022-10-08T06:26:45.409Z,1011.45
2022-10-08T06:27:45.403Z,1011.44
2022-10-08T06:28:45.509Z,1011.47
2022-10-08T06:29:45.502Z,1011.51
2022-10-08T06:30:45.362Z,1011.51
2022-10-08T06:31:45.450Z,1011.49
2022-10-08T06:32:45.696Z,1011.54
2022-10-08T06:33:45.357Z,1011.50
2022-10-08T06:34:45.323Z,1011.45
2022-10-08T06:35:45.341Z,1011.51
2022-10-08T06:36:45.306Z,1011.60
2022-10-08T06:37:45.300Z,1011.59
2022-10-08T06:38:45.322Z,1011.63
2022-10-08T06:39:48.473Z,1011.66
2022-10-08T06:40:45.293Z,1011.70
2022-10-08T06:41:45.241Z,1011.66
2022-10-08T06:42:45.507Z,1011.64
2022-10-08T06:43:45.222Z,1011.65
2022-10-08T06:44:45.222Z,1011.71
2022-10-08T06:45:45.201Z,1011.73
2022-10-08T06:46:45.253Z,1011.75
2022-10-08T06:47:45.185Z,1011.77
2022-10-08T06:48:45.172Z,1011.78
2022-10-08T06:49:45.162Z,1011.74
2022-10-08T06:50:45.150Z,1011.79
2022-10-08T06:51:45.141Z,1011.79
2022-10-08T06:52:45.494Z,1011.84
2022-10-08T06:53:45.140Z,1011.82
2022-10-08T06:54:45.125Z,1011.81
2022-10-08T06:55:45.091Z,1011.82
2022-10-08T06:56:45.080Z,1011.83
2022-10-08T06:57:45.074Z,1011.85
2022-10-08T06:58:45.109Z,1011.85
2022-10-08T06:59:45.053Z,1011.82
2022-10-08T07:00:45.084Z,1011.80
2022-10-08T07:01:45.155Z,1011.87
2022-10-08T07:02:45.484Z,1011.92
2022-10-08T07:03:45.048Z,1011.94
2022-10-08T07:04:45.099Z,1011.99
2022-10-08T07:05:44.985Z,1011.97
2022-10-08T07:06:44.980Z,1011.98
2022-10-08T07:07:45.000Z,1011.95
2022-10-08T07:08:44.950Z,1012.01
2022-10-08T07:09:44.938Z,1012.01
2022-10-08T07:10:44.919Z,1012.07
2022-10-08T07:11:44.958Z,1012.06
2022-10-08T07:12:45.379Z,1012.10
2022-10-08T07:13:44.939Z,1012.09
2022-10-08T07:14:44.907Z,1012.15
2022-10-08T07:15:44.877Z,1012.14
2022-10-08T07:16:44.937Z,1012.14
2022-10-08T07:17:44.867Z,1012.21
2022-10-08T07:18:44.848Z,1012.22
2022-10-08T07:19:44.862Z,1012.19
2022-10-08T07:20:44.820Z,1012.25
2022-10-08T07:21:44.808Z,1012.23
2022-10-08T07:22:45.132Z,1012.28
2022-10-08T07:23:44.819Z,1012.27
2022-10-08T07:24:44.770Z,1012.28
2022-10-08T07:25:44.829Z,1012.33
2022-10-08T07:26:44.762Z,1012.30
2022-10-08T07:27:45.134Z,1012.34
2022-10-08T07:28:44.813Z,1012.32
2022-10-08T07:29:49.111Z,1012.34
2022-10-08T07:30:44.721Z,1012.35
2022-10-08T07:31:44.815Z,1012.39
2022-10-08T07:32:45.097Z,1012.42
2022-10-08T07:33:44.682Z,1012.39
2022-10-08T07:34:44.722Z,1012.38
2022-10-08T07:35:44.691Z,1012.39
2022-10-08T07:36:44.691Z,1012.35
2022-10-08T07:37:44.700Z,1012.36
2022-10-08T07:38:44.632Z,1012.39
2022-10-08T07:39:44.629Z,1012.43
2022-10-08T07:40:44.625Z,1012.42
2022-10-08T07:41:44.602Z,1012.45
2022-10-08T07:42:44.903Z,1012.50
2022-10-08T07:43:44.581Z,1012.44
2022-10-08T07:44:44.626Z,1012.48
2022-10-08T07:45:44.576Z,1012.51
2022-10-08T07:46:44.589Z,1012.51
2022-10-08T07:47:44.659Z,1012.48
2022-10-08T07:48:44.520Z,1012.53
2022-10-08T07:49:44.518Z,1012.54
2022-10-08T07:50:44.530Z,1012.54
2022-10-08T07:51:44.519Z,1012.60
2022-10-08T07:52:44.810Z,1012.59
2022-10-08T07:53:44.616Z,1012.56
2022-10-08T07:54:44.548Z,1012.67
2022-10-08T07:55:44.479Z,1012.66
2022-10-08T07:56:44.450Z,1012.76
2022-10-08T07:57:44.438Z,1012.69
2022-10-08T07:59:37.835Z,1012.73
2022-10-08T08:00:37.789Z,1012.71
2022-10-08T08:01:37.774Z,1012.74
2022-10-08T08:02:37.791Z,1012.78
2022-10-08T08:03:37.796Z,1012.78
2022-10-08T08:04:37.744Z,1012.77
2022-10-08T08:05:37.741Z,1012.83
2022-10-08T08:06:37.784Z,1012.81
2022-10-08T08:07:37.724Z,1012.80
2022-10-08T08:08:37.732Z,1012.89
2022-10-08T08:09:37.734Z,1012.86
2022-10-08T08:10:37.776Z,1012.88
2022-10-08T08:11:37.675Z,1012.91
2022-10-08T08:12:37.674Z,1012.94
2022-10-08T08:13:37.775Z,1012.92
2022-10-08T08:14:37.865Z,1012.94
2022-10-08T08:15:37.674Z,1012.91
2022-10-08T08:16:37.798Z,1013.00
2022-10-08T08:17:37.645Z,1013.05
2022-10-08T08:18:37.778Z,1013.02
2022-10-08T08:19:37.723Z,1013.00
2022-10-08T08:20:37.576Z,1013.10
2022-10-08T08:21:37.575Z,1013.06
2022-10-08T08:22:37.562Z,1013.10
2022-10-08T08:23:37.535Z,1013.10
2022-10-08T08:24:37.734Z,1013.11
2022-10-08T08:25:37.505Z,1013.09
2022-10-08T08:26:37.513Z,1013.13
2022-10-08T08:27:37.502Z,1013.12
2022-10-08T08:28:37.763Z,1013.15
2022-10-08T08:29:37.524Z,1013.17
2022-10-08T08:30:37.485Z,1013.19
2022-10-08T08:31:37.513Z,1013.21
2022-10-08T08:32:37.474Z,1013.15
2022-10-08T08:33:37.485Z,1013.21
2022-10-08T08:34:37.424Z,1013.27
2022-10-08T08:35:37.435Z,1013.20
2022-10-08T08:36:37.425Z,1013.17
2022-10-08T08:37:37.421Z,1013.20
2022-10-08T08:38:37.415Z,1013.23
2022-10-08T08:39:37.464Z,1013.24
2022-10-08T08:40:37.356Z,1013.25
2022-10-08T08:41:37.354Z,1013.28
2022-10-08T08:42:37.404Z,1013.33
2022-10-08T08:43:37.394Z,1013.34
2022-10-08T08:44:37.302Z,1013.32
2022-10-08T08:45:52.627Z,1013.35
2022-10-08T08:46:38.332Z,1013.37
2022-10-08T08:47:37.275Z,1013.41
2022-10-08T08:48:37.266Z,1013.38
2022-10-08T08:49:37.243Z,1013.42
2022-10-08T08:50:37.267Z,1013.41
2022-10-08T08:51:37.224Z,1013.40
2022-10-08T08:52:37.215Z,1013.39
2022-10-08T08:53:37.269Z,1013.40
2022-10-08T08:54:37.234Z,1013.42
2022-10-08T08:55:37.213Z,1013.40
2022-10-08T08:56:37.194Z,1013.43
2022-10-08T08:57:37.173Z,1013.46
2022-10-08T08:58:37.175Z,1013.46
2022-10-08T08:59:37.163Z,1013.45
2022-10-08T09:00:37.174Z,1013.51
2022-10-08T09:01:37.166Z,1013.50
2022-10-08T09:02:37.094Z,1013.47
2022-10-08T09:03:37.093Z,1013.55
2022-10-08T09:04:39.549Z,1013.54
2022-10-08T09:05:46.459Z,1013.50
2022-10-08T09:06:38.452Z,1013.48
2022-10-08T09:07:37.082Z,1013.53
2022-10-08T09:08:37.085Z,1013.44
2022-10-08T09:09:37.041Z,1013.43
2022-10-08T09:10:37.027Z,1013.46
2022-10-08T09:11:37.024Z,1013.43
2022-10-08T09:12:37.143Z,1013.46
2022-10-08T09:13:36.984Z,1013.53
2022-10-08T09:14:36.972Z,1013.52
2022-10-08T09:15:36.972Z,1013.50
2022-10-08T09:16:37.007Z,1013.54
2022-10-08T09:17:36.942Z,1013.57
2022-10-08T09:18:36.973Z,1013.55
2022-10-08T09:19:36.950Z,1013.58
2022-10-08T09:20:40.245Z,1013.58
2022-10-08T09:21:36.923Z,1013.59
2022-10-08T09:22:36.893Z,1013.61
2022-10-08T09:23:36.872Z,1013.63
2022-10-08T09:24:37.114Z,1013.60
2022-10-08T09:25:36.870Z,1013.60
2022-10-08T09:26:36.840Z,1013.65
2022-10-08T09:27:36.841Z,1013.66
2022-10-08T09:28:36.920Z,1013.74
2022-10-08T09:29:36.815Z,1013.71
2022-10-08T09:30:36.895Z,1013.70
2022-10-08T09:31:36.861Z,1013.76
2022-10-08T09:32:36.783Z,1013.70
2022-10-08T09:33:36.771Z,1013.71
2022-10-08T09:34:36.773Z,1013.67
2022-10-08T09:35:36.752Z,1013.77
2022-10-08T09:36:36.741Z,1013.85
2022-10-08T09:37:36.733Z,1013.84
2022-10-08T09:38:36.725Z,1013.81
2022-10-08T09:39:36.740Z,1013.81
2022-10-08T09:40:36.712Z,1013.76
2022-10-08T09:41:36.680Z,1013.75
2022-10-08T09:42:36.673Z,1013.86
2022-10-08T09:43:36.665Z,1013.80
2022-10-08T09:44:36.673Z,1013.78
2022-10-08T09:45:36.748Z,1013.82
2022-10-08T09:46:36.622Z,1013.79
2022-10-08T09:47:36.614Z,1013.76
2022-10-08T09:48:36.603Z,1013.79
2022-10-08T09:49:36.652Z,1013.71
2022-10-08T09:50:36.582Z,1013.78
2022-10-08T09:51:36.583Z,1013.82
2022-10-08T09:52:36.566Z,1013.82
2022-10-08T09:53:36.552Z,1013.83
2022-10-08T09:54:36.536Z,1013.92
2022-10-08T09:55:36.571Z,1013.95
2022-10-08T09:56:36.543Z,1013.95
2022-10-08T09:57:39.379Z,1013.93
2022-10-08T09:58:37.492Z,1014.07
2022-10-08T09:59:36.518Z,1013.98
2022-10-08T10:00:36.475Z,1014.02
2022-10-08T10:01:36.633Z,1013.97
2022-10-08T10:02:36.463Z,1013.99
2022-10-08T10:03:36.487Z,1013.98
2022-10-08T10:04:36.430Z,1013.97
2022-10-08T10:05:36.422Z,1013.97
2022-10-08T10:06:36.415Z,1014.02
2022-10-08T10:07:36.473Z,1014.08
2022-10-08T10:08:36.385Z,1014.13
2022-10-08T10:09:36.401Z,1014.12
2022-10-08T10:10:36.362Z,1014.12
2022-10-08T10:11:36.363Z,1014.14
2022-10-08T10:12:36.353Z,1014.15
2022-10-08T10:13:36.382Z,1014.16
2022-10-08T10:14:36.323Z,1014.15
2022-10-08T10:15:36.313Z,1014.20
2022-10-08T10:16:36.411Z,1014.12
2022-10-08T10:17:36.356Z,1014.17
2022-10-08T10:18:36.312Z,1014.15
2022-10-08T10:19:36.312Z,1014.18
2022-10-08T10:20:36.268Z,1014.12
2022-10-08T10:21:36.252Z,1014.15
2022-10-08T10:22:36.251Z,1014.15
2022-10-08T10:23:36.330Z,1014.16
2022-10-08T10:24:36.277Z,1014.14
2022-10-08T10:25:36.241Z,1014.17
2022-10-08T10:26:36.202Z,1014.22
2022-10-08T10:27:36.220Z,1014.12
2022-10-08T10:28:36.245Z,1014.14
2022-10-08T10:29:36.182Z,1014.12
2022-10-08T10:30:36.224Z,1014.10
2022-10-08T10:31:36.141Z,1014.12
2022-10-08T10:32:36.133Z,1014.18
2022-10-08T10:33:36.264Z,1014.24
2022-10-08T10:34:36.242Z,1014.16
2022-10-08T10:35:36.114Z,1014.22
2022-10-08T10:36:36.091Z,1014.23
2022-10-08T10:37:36.092Z,1014.23
2022-10-08T10:38:38.492Z,1014.23
2022-10-08T10:39:37.150Z,1014.24
2022-10-08T10:40:36.082Z,1014.24
2022-10-08T10:41:36.033Z,1014.28
2022-10-08T10:42:36.012Z,1014.24
2022-10-08T10:43:36.085Z,1014.27
2022-10-08T10:44:36.012Z,1014.22
2022-10-08T10:45:36.085Z,1014.19
2022-10-08T10:46:36.065Z,1014.27
2022-10-08T10:47:35.973Z,1014.26
2022-10-08T10:48:35.952Z,1014.30
2022-10-08T10:49:35.990Z,1014.34
2022-10-08T10:50:35.954Z,1014.36
2022-10-08T10:51:35.951Z,1014.34
2022-10-08T10:52:35.942Z,1014.37
2022-10-08T10:53:35.971Z,1014.33
2022-10-08T10:54:35.900Z,1014.34
2022-10-08T10:55:35.891Z,1014.40
2022-10-08T10:56:35.932Z,1014.36
2022-10-08T10:57:35.878Z,1014.32
2022-10-08T10:58:35.981Z,1014.29
2022-10-08T10:59:35.866Z,1014.36
2022-10-08T11:00:35.821Z,1014.33
2022-10-08T11:01:35.905Z,1014.31
2022-10-08T11:02:35.939Z,1014.39
2022-10-08T11:03:35.892Z,1014.36
2022-10-08T11:04:35.813Z,1014.42
2022-10-08T11:05:35.952Z,1014.36
2022-10-08T11:06:35.902Z,1014.36
2022-10-08T11:07:35.861Z,1014.39
2022-10-08T11:08:35.762Z,1014.40
2022-10-08T11:09:35.758Z,1014.41
2022-10-08T11:10:35.730Z,1014.43
2022-10-08T11:11:35.801Z,1014.42
2022-10-08T11:12:35.831Z,1014.43
2022-10-08T11:13:35.701Z,1014.42
2022-10-08T11:14:35.812Z,1014.44
2022-10-08T11:15:35.742Z,1014.44
2022-10-08T11:16:35.672Z,1014.47
2022-10-08T11:17:35.731Z,1014.49
2022-10-08T11:18:35.839Z,1014.50
2022-10-08T11:19:35.662Z,1014.54
2022-10-08T11:20:35.721Z,1014.50
2022-10-08T11:21:35.649Z,1014.52
2022-10-08T11:22:35.662Z,1014.48
2022-10-08T11:23:35.651Z,1014.51
2022-10-08T11:24:35.690Z,1014.49
2022-10-08T11:25:55.722Z,1014.51
2022-10-08T11:26:36.584Z,1014.45
2022-10-08T11:27:35.590Z,1014.41
2022-10-08T11:28:35.597Z,1014.34
2022-10-08T11:29:35.747Z,1014.37
2022-10-08T11:30:35.598Z,1014.35
2022-10-08T11:31:35.530Z,1014.38
2022-10-08T11:32:35.629Z,1014.31
2022-10-08T11:33:35.531Z,1014.39
2022-10-08T11:34:35.591Z,1014.30
2022-10-08T11:35:35.532Z,1014.29
2022-10-08T11:36:35.481Z,1014.35
2022-10-08T11:37:35.510Z,1014.35
2022-10-08T11:38:35.489Z,1014.38
2022-10-08T11:39:35.421Z,1014.33
2022-10-08T11:40:35.482Z,1014.34
2022-10-08T11:41:35.420Z,1014.29
2022-10-08T11:42:39.902Z,1014.28
2022-10-08T11:43:36.413Z,1014.37
2022-10-08T11:44:35.411Z,1014.35
2022-10-08T11:45:35.340Z,1014.34
2022-10-08T11:46:35.450Z,1014.30
2022-10-08T11:47:35.332Z,1014.28
2022-10-08T11:48:35.301Z,1014.37
2022-10-08T11:49:35.293Z,1014.24
2022-10-08T11:50:35.341Z,1014.28
2022-10-08T11:51:35.310Z,1014.21
2022-10-08T11:52:35.742Z,1014.28
2022-10-08T11:53:35.258Z,1014.31
2022-10-08T11:54:35.772Z,1014.31
2022-10-08T11:55:35.290Z,1014.30
2022-10-08T11:56:35.209Z,1014.26
2022-10-08T11:57:55.876Z,1014.34
2022-10-08T11:58:36.249Z,1014.40
2022-10-08T11:59:35.260Z,1014.32
2022-10-08T12:00:35.171Z,1014.36
2022-10-08T12:01:35.159Z,1014.37
2022-10-08T12:02:35.292Z,1014.37
2022-10-08T12:03:35.286Z,1014.39
2022-10-08T12:04:35.192Z,1014.36
2022-10-08T12:05:35.112Z,1014.38
2022-10-08T12:06:35.307Z,1014.43
2022-10-08T12:07:35.095Z,1014.42